createdAt,value
2023-05-18T00:01:14.888Z,83.67
2023-05-18T00:03:43.155Z,83.43
2023-05-18T00:06:11.150Z,83.44
2023-05-18T00:08:40.286Z,84.55
2023-05-18T00:11:08.047Z,83.65
2023-05-18T00:13:35.929Z,82.90
2023-05-18T00:16:03.744Z,84.38
2023-05-18T00:18:31.522Z,85.01
2023-05-18T00:20:59.707Z,83.86
2023-05-18T00:23:29.914Z,84.70
2023-05-18T00:26:00.502Z,82.21
2023-05-18T00:28:28.614Z,85.35
2023-05-18T00:30:56.937Z,84.46
2023-05-18T00:33:24.931Z,84.92
2023-05-18T00:35:52.658Z,83.70
2023-05-18T00:38:20.575Z,85.15
2023-05-18T00:40:48.383Z,85.34
2023-05-18T00:43:17.490Z,87.31
2023-05-18T00:45:45.388Z,86.19
2023-05-18T00:48:13.421Z,86.15
2023-05-18T00:50:41.452Z,84.72
2023-05-18T00:53:10.622Z,82.23
2023-05-18T00:55:38.621Z,84.45
2023-05-18T00:58:06.581Z,86.03
2023-05-18T01:00:37.736Z,85.47
2023-05-18T01:03:06.201Z,83.78
2023-05-18T01:05:34.016Z,85.72
2023-05-18T01:08:03.031Z,83.54
2023-05-18T01:10:35.238Z,84.52
2023-05-18T01:13:07.868Z,86.08
2023-05-18T01:15:39.979Z,86.66
2023-05-18T01:18:16.259Z,83.97
2023-05-18T01:20:48.369Z,81.95
2023-05-18T01:23:44.937Z,81.50
2023-05-18T01:26:16.888Z,77.64
2023-05-18T01:28:47.861Z,76.67
2023-05-18T01:31:16.450Z,74.44
2023-05-18T01:33:44.480Z,77.10
2023-05-18T01:36:12.472Z,76.71
2023-05-18T01:38:43.933Z,78.22
2023-05-18T01:41:19.740Z,76.91
2023-05-18T01:43:54.031Z,77.17
2023-05-18T01:46:35.910Z,77.61
2023-05-18T01:49:11.137Z,79.14
2023-05-18T01:51:44.965Z,80.77
2023-05-18T01:54:16.853Z,79.75
2023-05-18T01:56:48.306Z,80.68
2023-05-18T01:59:16.568Z,81.30
2023-05-18T02:01:45.218Z,81.32
2023-05-18T02:04:13.330Z,84.88
2023-05-18T02:06:41.151Z,84.95
2023-05-18T02:09:09.071Z,83.94
2023-05-18T02:11:36.900Z,83.95
2023-05-18T02:14:06.093Z,83.67
2023-05-18T02:16:33.861Z,82.83
2023-05-18T02:19:01.871Z,79.79
2023-05-18T02:21:29.760Z,77.57
2023-05-18T02:23:57.541Z,75.51
2023-05-18T02:26:25.284Z,75.20
2023-05-18T02:28:53.039Z,77.45
2023-05-18T02:31:22.327Z,78.24
2023-05-18T02:33:50.186Z,77.01
2023-05-18T02:36:18.630Z,77.57
2023-05-18T02:38:46.504Z,79.44
2023-05-18T02:41:14.250Z,78.93
2023-05-18T02:43:42.131Z,77.92
2023-05-18T02:46:09.919Z,77.54
2023-05-18T02:48:39.033Z,77.93
2023-05-18T02:51:06.844Z,76.43
2023-05-18T02:53:34.543Z,77.32
2023-05-18T02:56:03.761Z,76.27
2023-05-18T02:58:31.844Z,77.67
2023-05-18T03:01:00.407Z,77.93
2023-05-18T03:03:28.254Z,78.07
2023-05-18T03:05:57.437Z,77.65
2023-05-18T03:08:26.737Z,79.20
2023-05-18T03:10:54.539Z,81.03
2023-05-18T03:13:22.332Z,81.87
2023-05-18T03:15:50.982Z,84.05
2023-05-18T03:18:19.038Z,85.02
2023-05-18T03:20:46.830Z,85.55
2023-05-18T03:23:15.912Z,85.74
2023-05-18T03:25:44.758Z,87.30
2023-05-18T03:28:12.576Z,86.89
2023-05-18T03:30:40.463Z,86.70
2023-05-18T03:33:08.311Z,84.52
2023-05-18T03:35:36.209Z,83.83
2023-05-18T03:38:03.912Z,82.99
2023-05-18T03:40:33.089Z,81.11
2023-05-18T03:43:01.679Z,80.99
2023-05-18T03:45:29.813Z,81.57
2023-05-18T03:47:57.869Z,82.35
2023-05-18T03:50:25.789Z,80.00
2023-05-18T03:52:54.133Z,81.49
2023-05-18T03:55:22.239Z,81.88
2023-05-18T03:57:51.429Z,81.43
2023-05-18T04:00:19.993Z,81.62
2023-05-18T04:02:51.778Z,81.93
2023-05-18T04:05:20.623Z,81.80
2023-05-18T04:07:48.395Z,81.89
2023-05-18T04:10:17.209Z,83.15
2023-05-18T04:12:45.063Z,82.52
2023-05-18T04:15:14.569Z,81.41
2023-05-18T04:17:45.406Z,83.19
2023-05-18T04:20:14.476Z,82.95
2023-05-18T04:22:46.310Z,84.55
2023-05-18T04:25:14.460Z,84.11
2023-05-18T04:27:43.297Z,86.98
2023-05-18T04:30:12.679Z,88.53
2023-05-18T04:32:42.874Z,88.07
2023-05-18T04:35:12.654Z,89.50
2023-05-18T04:37:41.289Z,92.44
2023-05-18T04:40:13.422Z,91.24
2023-05-18T04:42:45.465Z,88.87
2023-05-18T04:45:15.886Z,90.39
2023-05-18T04:47:47.100Z,90.32
2023-05-18T04:50:16.255Z,90.21
2023-05-18T04:52:48.859Z,89.29
2023-05-18T04:55:22.884Z,87.43
2023-05-18T04:57:51.050Z,88.58
2023-05-18T05:00:19.742Z,88.58
2023-05-18T05:02:48.934Z,87.52
2023-05-18T05:05:16.797Z,88.44
2023-05-18T05:07:44.552Z,87.08
2023-05-18T05:10:12.518Z,90.74
2023-05-18T05:12:40.475Z,90.89
2023-05-18T05:15:09.818Z,88.11
2023-05-18T05:17:37.738Z,86.89
2023-05-18T05:20:08.168Z,82.25
2023-05-18T05:22:36.181Z,82.88
2023-05-18T05:25:06.061Z,83.52
2023-05-18T05:27:34.188Z,84.60
2023-05-18T05:30:02.049Z,85.59
2023-05-18T05:32:29.832Z,86.93
2023-05-18T05:34:57.626Z,88.42
2023-05-18T05:37:26.756Z,87.80
2023-05-18T05:39:54.697Z,87.31
2023-05-18T05:42:22.394Z,87.81
2023-05-18T05:44:50.243Z,88.70
2023-05-18T05:47:18.044Z,87.24
2023-05-18T05:49:45.763Z,87.17
2023-05-18T05:52:13.639Z,87.79
2023-05-18T05:54:43.155Z,84.24
2023-05-18T05:57:10.853Z,83.75
2023-05-18T05:59:38.665Z,88.98
2023-05-18T06:02:06.718Z,88.31
2023-05-18T06:04:34.573Z,88.24
2023-05-18T06:07:02.419Z,84.69
2023-05-18T06:09:30.158Z,82.56
2023-05-18T06:11:59.449Z,83.18
2023-05-18T06:14:27.320Z,82.73
2023-05-18T06:16:55.117Z,85.20
2023-05-18T06:19:23.092Z,84.96
2023-05-18T06:21:50.995Z,81.66
2023-05-18T06:24:18.783Z,81.56
2023-05-18T06:26:46.551Z,81.82
2023-05-18T06:29:15.744Z,81.49
2023-05-18T06:31:43.598Z,80.67
2023-05-18T06:34:11.407Z,80.53
2023-05-18T06:36:39.336Z,79.27
2023-05-18T06:39:07.119Z,78.77
2023-05-18T06:41:35.171Z,79.94
2023-05-18T06:44:02.906Z,79.27
2023-05-18T06:46:32.189Z,79.36
2023-05-18T06:49:00.065Z,76.18
2023-05-18T06:51:27.956Z,76.59
2023-05-18T06:53:55.933Z,77.34
2023-05-18T06:56:23.961Z,73.77
2023-05-18T06:58:51.676Z,76.46
2023-05-18T07:01:19.514Z,74.06
2023-05-18T07:03:48.760Z,73.51
2023-05-18T07:06:16.618Z,74.25
2023-05-18T07:08:45.434Z,71.02
2023-05-18T07:11:13.157Z,69.11
2023-05-18T07:13:40.913Z,69.40
2023-05-18T07:16:08.756Z,67.30
2023-05-18T07:18:36.673Z,67.04
2023-05-18T07:21:06.534Z,67.36
2023-05-18T07:23:34.263Z,66.96
2023-05-18T07:26:02.063Z,66.98
2023-05-18T07:28:29.926Z,66.84
2023-05-18T07:30:57.692Z,66.42
2023-05-18T07:33:25.525Z,68.06
2023-05-18T07:35:53.271Z,66.61
2023-05-18T07:38:22.438Z,67.63
2023-05-18T07:40:50.219Z,67.15
2023-05-18T07:43:17.979Z,65.90
2023-05-18T07:45:45.751Z,68.29
2023-05-18T07:48:13.691Z,66.42
2023-05-18T07:50:41.516Z,66.24
2023-05-18T07:53:09.279Z,67.06
2023-05-18T07:55:38.564Z,68.48
2023-05-18T07:58:06.813Z,67.05
2023-05-18T08:00:34.934Z,66.13
2023-05-18T08:03:02.855Z,67.03
2023-05-18T08:05:31.215Z,63.06
2023-05-18T08:07:59.228Z,65.91
2023-05-18T08:10:27.207Z,63.54
2023-05-18T08:12:56.319Z,66.74
2023-05-18T08:15:24.221Z,66.78
2023-05-18T08:17:52.259Z,64.90
2023-05-18T08:20:20.328Z,67.22
2023-05-18T08:22:48.118Z,68.32
2023-05-18T08:25:15.881Z,65.95
2023-05-18T08:27:43.685Z,64.31
2023-05-18T08:30:14.177Z,62.38
2023-05-18T08:32:42.065Z,63.38
2023-05-18T08:35:10.852Z,61.80
2023-05-18T08:37:39.712Z,66.14
2023-05-18T08:40:11.321Z,65.19
2023-05-18T08:42:49.507Z,64.65
2023-05-18T08:45:25.143Z,62.19
2023-05-18T08:47:56.839Z,64.05
2023-05-18T08:50:26.739Z,64.05
2023-05-18T08:52:57.016Z,64.10
2023-05-18T08:55:25.056Z,60.47
2023-05-18T08:57:56.821Z,62.34
2023-05-18T09:00:26.395Z,62.28
2023-05-18T09:02:54.638Z,61.82
2023-05-18T09:05:24.046Z,63.37
2023-05-18T09:07:52.659Z,63.77
2023-05-18T09:10:20.438Z,65.79
2023-05-18T09:12:49.899Z,60.46
2023-05-18T09:15:18.477Z,61.76
2023-05-18T09:17:47.672Z,61.78
2023-05-18T09:20:17.602Z,59.56
2023-05-18T09:22:45.392Z,58.76
2023-05-18T09:25:13.100Z,58.33
2023-05-18T09:27:41.421Z,58.69
2023-05-18T09:30:12.502Z,58.18
2023-05-18T09:32:40.788Z,58.23
2023-05-18T09:35:10.747Z,54.77
2023-05-18T09:37:42.779Z,56.35
2023-05-18T09:40:10.984Z,55.68
2023-05-18T09:42:39.634Z,55.47
2023-05-18T09:45:18.336Z,56.17
2023-05-18T09:47:46.360Z,54.89
2023-05-18T09:50:15.549Z,55.47
2023-05-18T09:52:44.238Z,54.10
2023-05-18T09:55:12.584Z,54.71
2023-05-18T09:57:42.573Z,53.88
2023-05-18T10:00:12.683Z,53.39
2023-05-18T10:02:42.318Z,52.35
2023-05-18T10:05:21.258Z,50.85
2023-05-18T10:07:49.668Z,51.05
2023-05-18T10:10:20.810Z,52.17
2023-05-18T10:12:49.330Z,51.37
2023-05-18T10:15:19.604Z,50.42
2023-05-18T10:17:48.067Z,51.28
2023-05-18T10:20:20.624Z,53.31
2023-05-18T10:22:50.022Z,48.99
2023-05-18T10:25:20.658Z,49.46
2023-05-18T10:27:50.445Z,49.63
2023-05-18T10:30:18.642Z,50.74
2023-05-18T10:32:46.878Z,49.34
2023-05-18T10:35:15.289Z,48.77
2023-05-18T10:37:48.391Z,50.49
2023-05-18T10:40:16.612Z,49.71
2023-05-18T10:42:45.848Z,48.67
2023-05-18T10:45:13.786Z,49.79
2023-05-18T10:47:44.561Z,49.17
2023-05-18T10:50:12.430Z,46.88
2023-05-18T10:52:42.556Z,48.68
2023-05-18T10:55:12.619Z,48.88
2023-05-18T10:57:45.620Z,47.83
2023-05-18T11:00:14.368Z,46.45
2023-05-18T11:02:43.490Z,49.03
2023-05-18T11:05:12.562Z,51.41
2023-05-18T11:07:41.653Z,50.16
2023-05-18T11:10:12.583Z,49.77
2023-05-18T11:12:42.213Z,49.29
2023-05-18T11:15:10.705Z,51.00
2023-05-18T11:17:38.468Z,51.77
2023-05-18T11:20:14.251Z,54.13
2023-05-18T11:22:46.873Z,51.25
2023-05-18T11:25:49.616Z,50.38
2023-05-18T11:28:17.476Z,51.57
2023-05-18T11:30:50.970Z,51.37
2023-05-18T11:33:24.411Z,52.19
2023-05-18T11:36:11.671Z,52.60
2023-05-18T11:38:54.231Z,52.34
2023-05-18T11:41:34.164Z,50.81
2023-05-18T11:44:09.902Z,51.52
2023-05-18T11:46:37.905Z,53.55
2023-05-18T11:49:06.148Z,51.44
2023-05-18T11:51:34.213Z,50.74
2023-05-18T11:54:02.057Z,51.35
2023-05-18T11:56:34.647Z,52.32
2023-05-18T11:59:15.930Z,51.36
2023-05-18T12:01:44.574Z,50.94
2023-05-18T12:04:13.118Z,52.25
2023-05-18T12:06:41.226Z,50.94
2023-05-18T12:09:09.027Z,51.55
2023-05-18T12:11:39.037Z,52.80
2023-05-18T12:14:07.503Z,50.68
2023-05-18T12:16:37.773Z,51.86
2023-05-18T12:19:05.629Z,51.18
2023-05-18T12:21:36.871Z,51.02
2023-05-18T12:24:05.240Z,51.03
2023-05-18T12:26:33.093Z,51.43
2023-05-18T12:29:03.041Z,51.04
2023-05-18T12:31:31.716Z,52.72
2023-05-18T12:34:02.401Z,50.73
2023-05-18T12:36:30.563Z,50.25
2023-05-18T12:38:58.300Z,51.03
2023-05-18T12:41:27.478Z,50.35
2023-05-18T12:43:55.725Z,51.11
2023-05-18T12:46:25.649Z,51.41
2023-05-18T12:48:59.624Z,50.44
2023-05-18T12:51:31.486Z,51.29
2023-05-18T12:53:59.626Z,51.37
2023-05-18T12:56:28.492Z,51.79
2023-05-18T12:58:58.552Z,50.52
2023-05-18T13:01:28.126Z,49.62
2023-05-18T13:03:59.694Z,51.63
2023-05-18T13:06:27.524Z,50.35
2023-05-18T13:08:56.271Z,51.93
2023-05-18T13:11:27.700Z,52.59
2023-05-18T13:13:59.549Z,53.02
2023-05-18T13:16:30.232Z,53.04
2023-05-18T13:19:00.290Z,53.96
2023-05-18T13:21:28.510Z,55.85
2023-05-18T13:23:56.271Z,56.09
2023-05-18T13:26:25.255Z,54.94
2023-05-18T13:28:54.676Z,53.53
2023-05-18T13:31:23.231Z,54.95
2023-05-18T13:33:52.530Z,54.43
2023-05-18T13:36:20.464Z,54.13
2023-05-18T13:38:48.344Z,54.80
2023-05-18T13:41:16.178Z,55.68
2023-05-18T13:43:43.992Z,55.96
2023-05-18T13:46:11.747Z,55.14
2023-05-18T13:48:39.560Z,55.13
2023-05-18T13:51:08.744Z,56.40
2023-05-18T13:53:38.010Z,56.76
2023-05-18T13:56:06.822Z,56.87
2023-05-18T13:58:36.064Z,55.94
2023-05-18T14:01:07.989Z,57.87
2023-05-18T14:03:36.564Z,54.95
2023-05-18T14:06:04.753Z,54.79
2023-05-18T14:08:33.913Z,54.44
2023-05-18T14:13:29.469Z,52.68
2023-05-18T14:15:57.218Z,51.76
2023-05-18T14:18:24.931Z,51.27
2023-05-18T14:20:52.694Z,51.47
2023-05-18T14:23:20.557Z,53.05
2023-05-18T14:25:49.639Z,53.71
2023-05-18T14:28:17.631Z,55.72
2023-05-18T14:30:45.617Z,54.88
2023-05-18T14:33:13.584Z,55.68
2023-05-18T14:35:41.449Z,56.51
2023-05-18T14:38:09.159Z,56.09
2023-05-18T14:40:36.919Z,55.67
2023-05-18T14:43:06.051Z,56.09
2023-05-18T14:45:33.871Z,56.38
2023-05-18T14:48:01.771Z,55.53
2023-05-18T14:50:29.898Z,56.39
2023-05-18T14:52:57.826Z,55.41
2023-05-18T14:55:25.576Z,54.75
2023-05-18T14:57:53.410Z,53.67
2023-05-18T15:00:22.970Z,52.90
2023-05-18T15:02:50.832Z,52.47
2023-05-18T15:05:18.945Z,53.24
2023-05-18T15:07:46.675Z,52.89
2023-05-18T15:10:14.420Z,52.18
2023-05-18T15:12:42.268Z,53.92
2023-05-18T15:15:10.764Z,54.98
2023-05-18T15:17:39.900Z,55.40
2023-05-18T15:20:09.009Z,55.69
2023-05-18T15:22:38.227Z,55.75
2023-05-18T15:25:08.016Z,57.07
2023-05-18T15:27:35.980Z,57.38
2023-05-18T15:30:06.845Z,59.39
2023-05-18T15:32:34.612Z,58.02
2023-05-18T15:35:03.873Z,59.92
2023-05-18T15:37:31.591Z,60.00
2023-05-18T15:39:59.548Z,60.19
2023-05-18T15:42:28.050Z,58.92
2023-05-18T15:44:55.916Z,57.24
2023-05-18T15:47:23.677Z,58.06
2023-05-18T15:49:51.441Z,59.47
2023-05-18T15:52:20.556Z,55.08
2023-05-18T15:54:48.372Z,56.36
2023-05-18T15:57:16.297Z,55.35
2023-05-18T15:59:44.130Z,55.62
2023-05-18T16:02:11.910Z,56.81
2023-05-18T16:04:40.062Z,54.37
2023-05-18T16:07:07.928Z,55.26
2023-05-18T16:09:37.120Z,54.70
2023-05-18T16:12:05.500Z,53.17
2023-05-18T16:14:33.292Z,54.49
2023-05-18T16:17:02.247Z,53.69
2023-05-18T16:19:30.129Z,54.22
2023-05-18T16:21:57.946Z,53.66
2023-05-18T16:24:25.695Z,54.20
2023-05-18T16:26:54.839Z,55.08
2023-05-18T16:29:22.536Z,53.93
2023-05-18T16:31:51.887Z,54.36
2023-05-18T16:34:19.858Z,54.16
2023-05-18T16:36:47.685Z,54.15
2023-05-18T16:39:16.340Z,53.17
2023-05-18T16:41:44.079Z,52.14
2023-05-18T16:44:13.184Z,51.93
2023-05-18T16:46:40.950Z,50.94
2023-05-18T16:49:08.771Z,51.03
2023-05-18T16:51:36.522Z,51.33
2023-05-18T16:54:06.099Z,50.22
2023-05-18T16:56:35.728Z,50.00
2023-05-18T16:59:03.509Z,48.54
2023-05-18T17:01:32.667Z,49.76
2023-05-18T17:04:00.540Z,49.30
2023-05-18T17:06:28.545Z,49.92
2023-05-18T17:08:58.666Z,50.36
2023-05-18T17:11:27.704Z,50.33
2023-05-18T17:13:55.704Z,50.61
2023-05-18T17:16:23.564Z,50.47
2023-05-18T17:18:54.486Z,50.06
2023-05-18T17:21:23.691Z,49.55
2023-05-18T17:23:51.439Z,49.48
2023-05-18T17:26:20.059Z,48.79
2023-05-18T17:28:47.804Z,48.00
2023-05-18T17:31:15.726Z,49.69
2023-05-18T17:33:47.104Z,49.55
2023-05-18T17:36:18.011Z,47.53
2023-05-18T17:38:46.821Z,48.18
2023-05-18T17:41:14.680Z,47.50
2023-05-18T17:43:42.503Z,48.12
2023-05-18T17:46:10.243Z,49.15
2023-05-18T17:48:37.953Z,48.87
2023-05-18T17:51:05.956Z,49.73
2023-05-18T17:53:35.097Z,50.10
2023-05-18T17:56:02.937Z,49.54
2023-05-18T17:58:30.717Z,49.35
2023-05-18T18:00:58.628Z,49.99
2023-05-18T18:03:26.592Z,49.67
2023-05-18T18:05:54.699Z,49.66
2023-05-18T18:08:22.478Z,49.62
2023-05-18T18:10:52.670Z,49.19
2023-05-18T18:13:20.418Z,49.65
2023-05-18T18:15:48.181Z,48.95
2023-05-18T18:18:15.952Z,49.04
2023-05-18T18:20:44.159Z,49.46
2023-05-18T18:23:12.247Z,49.38
2023-05-18T18:25:40.046Z,48.62
2023-05-18T18:28:14.577Z,49.31
2023-05-18T18:30:44.188Z,48.40
2023-05-18T18:33:12.366Z,47.90
2023-05-18T18:35:40.591Z,47.86
2023-05-18T18:38:08.969Z,47.77
2023-05-18T18:40:36.749Z,47.26
2023-05-18T18:43:04.595Z,47.08
2023-05-18T18:45:33.870Z,48.32
2023-05-18T18:48:02.748Z,47.11
2023-05-18T18:50:30.828Z,47.29
2023-05-18T18:52:58.826Z,47.28
2023-05-18T18:55:26.642Z,47.66
2023-05-18T18:57:55.550Z,48.19
2023-05-18T19:00:23.786Z,49.25
2023-05-18T19:02:52.930Z,48.75
2023-05-18T19:05:23.353Z,49.88
2023-05-18T19:07:55.028Z,48.52
2023-05-18T19:10:23.700Z,48.31
2023-05-18T19:12:51.458Z,48.12
2023-05-18T19:15:21.258Z,47.96
2023-05-18T19:17:52.051Z,47.48
2023-05-18T19:20:21.941Z,47.60
2023-05-18T19:22:49.866Z,47.96
2023-05-18T19:25:17.685Z,47.62
2023-05-18T19:27:45.675Z,47.03
2023-05-18T19:30:16.541Z,46.57
2023-05-18T19:32:44.327Z,45.80
2023-05-18T19:35:12.093Z,46.10
2023-05-18T19:37:41.223Z,46.28
2023-05-18T19:40:09.630Z,45.93
2023-05-18T19:42:37.444Z,45.91
2023-05-18T19:45:05.996Z,45.99
2023-05-18T19:47:33.817Z,46.06
2023-05-18T19:50:01.955Z,45.99
2023-05-18T19:52:29.720Z,46.21
2023-05-18T19:54:58.814Z,45.99
2023-05-18T19:57:26.559Z,45.98
2023-05-18T19:59:54.429Z,46.61
2023-05-18T20:02:22.281Z,47.81
2023-05-18T20:04:50.118Z,48.27
2023-05-18T20:07:20.374Z,47.15
2023-05-18T20:09:48.187Z,47.31
2023-05-18T20:12:17.311Z,47.53
2023-05-18T20:14:45.829Z,48.53
2023-05-18T20:17:13.971Z,48.26
2023-05-18T20:19:49.846Z,48.22
2023-05-18T20:22:17.938Z,48.36
2023-05-18T20:24:46.084Z,48.59
2023-05-18T20:27:15.170Z,49.21
2023-05-18T20:29:44.334Z,49.35
2023-05-18T20:32:12.113Z,49.28
2023-05-18T20:34:40.555Z,49.89
2023-05-18T20:37:10.967Z,50.44
2023-05-18T20:39:39.887Z,49.74
2023-05-18T20:42:12.778Z,49.53
2023-05-18T20:44:40.639Z,50.50
2023-05-18T20:47:11.204Z,50.49
2023-05-18T20:49:39.147Z,50.10
2023-05-18T20:52:07.224Z,50.40
2023-05-18T20:54:34.945Z,51.34
2023-05-18T20:57:03.070Z,51.25
2023-05-18T20:59:31.275Z,50.78
2023-05-18T21:01:59.167Z,52.17
2023-05-18T21:04:28.407Z,52.77
2023-05-18T21:06:56.229Z,52.47
2023-05-18T21:09:23.976Z,53.59
2023-05-18T21:11:51.730Z,53.03
2023-05-18T21:14:19.559Z,53.65
2023-05-18T21:16:47.300Z,54.35
2023-05-18T21:19:15.114Z,54.59
2023-05-18T21:21:44.269Z,55.22
2023-05-18T21:24:12.003Z,54.74
2023-05-18T21:26:40.960Z,55.55
2023-05-18T21:29:09.852Z,56.74
2023-05-18T21:31:37.728Z,55.63
2023-05-18T21:34:05.613Z,56.38
2023-05-18T21:36:34.632Z,56.21
2023-05-18T21:39:05.496Z,57.45
2023-05-18T21:41:35.256Z,56.60
2023-05-18T21:44:03.271Z,57.97
2023-05-18T21:46:32.444Z,58.62
2023-05-18T21:49:00.371Z,58.81
2023-05-18T21:51:31.222Z,59.04
2023-05-18T21:53:59.505Z,59.33
2023-05-18T21:56:29.829Z,60.28
2023-05-18T21:58:58.027Z,60.64
2023-05-18T22:01:25.888Z,60.38
2023-05-18T22:03:54.090Z,60.90
2023-05-18T22:06:21.929Z,62.31
2023-05-18T22:08:49.765Z,61.92
2023-05-18T22:11:17.535Z,62.30
2023-05-18T22:13:46.861Z,63.44
2023-05-18T22:16:14.648Z,62.10
2023-05-18T22:18:42.395Z,62.12
2023-05-18T22:21:10.186Z,62.85
2023-05-18T22:23:39.093Z,63.07
2023-05-18T22:26:07.097Z,65.14
2023-05-18T22:28:35.011Z,65.03
2023-05-18T22:31:04.140Z,64.25
2023-05-18T22:33:31.913Z,66.04
2023-05-18T22:35:59.715Z,66.84
2023-05-18T22:38:27.789Z,66.43
2023-05-18T22:40:55.569Z,66.39
2023-05-18T22:43:23.360Z,64.80
2023-05-18T22:45:51.229Z,64.60
2023-05-18T22:48:20.493Z,67.08
2023-05-18T22:50:48.280Z,67.24
2023-05-18T22:53:16.000Z,65.55
2023-05-18T22:55:43.914Z,66.28
2023-05-18T22:58:11.700Z,68.22
2023-05-18T23:00:39.413Z,68.35
2023-05-18T23:03:07.196Z,68.04
2023-05-18T23:05:40.971Z,67.55
2023-05-18T23:08:09.633Z,66.93
2023-05-18T23:10:37.640Z,67.05
2023-05-18T23:13:05.408Z,67.43
2023-05-18T23:15:33.197Z,69.56
2023-05-18T23:18:01.048Z,67.86
2023-05-18T23:20:28.854Z,68.54
2023-05-18T23:22:58.038Z,67.70
2023-05-18T23:25:25.996Z,70.01
2023-05-18T23:27:53.784Z,70.74
2023-05-18T23:30:21.596Z,69.83
2023-05-18T23:32:50.176Z,69.53
2023-05-18T23:35:19.240Z,71.22
2023-05-18T23:37:49.893Z,70.64
2023-05-18T23:40:20.141Z,71.73
2023-05-18T23:42:48.385Z,70.96
2023-05-18T23:45:17.082Z,70.73
2023-05-18T23:47:46.274Z,70.26
2023-05-18T23:50:15.801Z,72.76
2023-05-18T23:52:47.087Z,71.60
2023-05-18T23:55:15.539Z,72.08
2023-05-18T23:57:45.424Z,72.76
